createdAt,value
2022-09-07T00:00:57.473Z,31.10
2022-09-07T00:03:27.657Z,28.10
2022-09-07T00:05:58.031Z,27.63
2022-09-07T00:08:28.571Z,31.50
2022-09-07T00:10:59.356Z,34.70
2022-09-07T00:13:30.350Z,32.72
2022-09-07T00:16:00.370Z,23.98
2022-09-07T00:18:30.477Z,43.70
2022-09-07T00:21:01.573Z,31.17
2022-09-07T00:23:32.102Z,28.35
2022-09-07T00:26:08.937Z,36.75
2022-09-07T00:28:39.031Z,27.95
2022-09-07T00:31:13.156Z,22.33
2022-09-07T00:33:43.561Z,23.05
2022-09-07T00:36:13.588Z,23.25
2022-09-07T00:38:43.770Z,21.38
2022-09-07T00:41:13.896Z,28.23
2022-09-07T00:43:44.815Z,21.70
2022-09-07T00:46:16.085Z,15.57
2022-09-07T00:48:48.723Z,21.35
2022-09-07T00:51:21.070Z,15.50
2022-09-07T00:53:57.163Z,13.32
2022-09-07T00:56:32.549Z,22.57
2022-09-07T00:59:03.366Z,14.77
2022-09-07T01:01:34.865Z,20.88
2022-09-07T01:04:05.707Z,15.50
2022-09-07T01:06:36.773Z,16.83
2022-09-07T01:09:08.413Z,19.27
2022-09-07T01:11:39.280Z,27.33
2022-09-07T01:14:10.334Z,18.77
2022-09-07T01:16:46.635Z,23.80
2022-09-07T01:19:29.634Z,17.73
2022-09-07T01:22:00.083Z,18.40
2022-09-07T01:24:33.051Z,25.80
2022-09-07T01:27:25.697Z,23.80
2022-09-07T01:30:05.017Z,13.90
2022-09-07T01:32:35.280Z,16.52
2022-09-07T01:35:05.898Z,16.35
2022-09-07T01:37:38.975Z,14.23
2022-09-07T01:40:23.226Z,17.75
2022-09-07T01:42:56.229Z,19.95
2022-09-07T01:45:27.006Z,23.13
2022-09-07T01:47:57.912Z,20.50
2022-09-07T01:50:27.938Z,19.65
2022-09-07T01:53:04.178Z,18.00
2022-09-07T01:55:38.145Z,21.10
2022-09-07T01:58:15.534Z,29.25
2022-09-07T02:00:47.345Z,16.30
2022-09-07T02:03:18.160Z,11.55
2022-09-07T02:05:59.667Z,26.50
2022-09-07T02:08:40.093Z,24.50
2022-09-07T02:11:11.259Z,14.98
2022-09-07T02:13:42.832Z,20.08
2022-09-07T02:16:14.223Z,13.13
2022-09-07T02:18:46.456Z,21.83
2022-09-07T02:21:18.730Z,22.08
2022-09-07T02:23:53.211Z,20.33
2022-09-07T02:26:24.223Z,19.85
2022-09-07T02:28:54.266Z,18.50
2022-09-07T02:31:24.290Z,21.55
2022-09-07T02:33:55.040Z,20.20
2022-09-07T02:36:26.770Z,19.05
2022-09-07T02:38:57.367Z,22.33
2022-09-07T02:41:30.452Z,12.57
2022-09-07T02:44:00.598Z,14.45
2022-09-07T02:46:53.627Z,15.18
2022-09-07T02:49:23.963Z,20.20
2022-09-07T02:51:58.030Z,17.77
2022-09-07T02:54:34.480Z,19.95
2022-09-07T02:57:14.833Z,12.93
2022-09-07T02:59:51.489Z,13.75
2022-09-07T03:02:22.877Z,27.02
2022-09-07T03:04:57.224Z,20.80
2022-09-07T03:07:42.168Z,20.80
2022-09-07T03:10:15.369Z,22.80
2022-09-07T03:12:46.230Z,15.02
2022-09-07T03:15:16.842Z,24.75
2022-09-07T03:17:46.893Z,18.02
2022-09-07T03:20:18.329Z,19.55
2022-09-07T03:22:49.817Z,21.55
2022-09-07T03:25:20.165Z,25.60
2022-09-07T03:27:50.256Z,24.15
2022-09-07T03:30:20.312Z,25.52
2022-09-07T03:32:50.355Z,37.20
2022-09-07T03:35:20.479Z,35.55
2022-09-07T03:37:50.450Z,35.42
2022-09-07T03:40:20.530Z,25.92
2022-09-07T03:42:51.547Z,24.75
2022-09-07T03:45:21.749Z,19.48
2022-09-07T03:47:52.385Z,35.25
2022-09-07T03:50:22.437Z,29.08
2022-09-07T03:52:55.292Z,31.45
2022-09-07T03:55:25.412Z,37.00
2022-09-07T03:57:55.492Z,32.90
2022-09-07T04:00:26.372Z,25.55
2022-09-07T04:02:56.453Z,23.80
2022-09-07T04:05:26.859Z,18.35
2022-09-07T04:07:56.839Z,21.88
2022-09-07T04:10:27.087Z,26.30
2022-09-07T04:12:57.127Z,26.55
2022-09-07T04:15:27.118Z,25.17
2022-09-07T04:17:57.110Z,24.85
2022-09-07T04:20:27.151Z,44.15
2022-09-07T04:22:57.180Z,30.83
2022-09-07T04:25:27.180Z,19.40
2022-09-07T04:27:58.159Z,15.73
2022-09-07T04:30:28.192Z,20.75
2022-09-07T04:32:58.715Z,26.45
2022-09-07T04:35:28.747Z,18.15
2022-09-07T04:37:58.790Z,25.15
2022-09-07T04:40:28.776Z,31.60
2022-09-07T04:42:58.787Z,24.25
2022-09-07T04:45:28.790Z,28.98
2022-09-07T04:47:58.824Z,18.10
2022-09-07T04:50:28.851Z,17.95
2022-09-07T04:53:00.642Z,16.45
2022-09-07T04:55:30.605Z,15.90
2022-09-07T04:58:00.661Z,16.50
2022-09-07T05:00:30.704Z,11.98
2022-09-07T05:03:00.727Z,9.18
2022-09-07T05:05:31.151Z,21.08
2022-09-07T05:08:01.200Z,7.03
2022-09-07T05:10:31.275Z,16.20
2022-09-07T05:13:01.261Z,15.10
2022-09-07T05:15:31.980Z,16.65
2022-09-07T05:18:02.015Z,14.15
2022-09-07T05:20:32.212Z,11.48
2022-09-07T05:23:02.248Z,18.60
2022-09-07T05:25:32.604Z,14.90
2022-09-07T05:28:02.639Z,11.32
2022-09-07T05:33:22.817Z,10.07
2022-09-07T05:35:59.904Z,8.23
2022-09-07T05:38:30.067Z,13.93
2022-09-07T05:41:00.621Z,16.45
2022-09-07T05:43:30.679Z,11.30
2022-09-07T05:46:00.716Z,17.00
2022-09-07T05:48:30.887Z,10.88
2022-09-07T05:51:03.621Z,10.60
2022-09-07T05:53:33.722Z,5.95
2022-09-07T05:56:07.003Z,6.68
2022-09-07T05:58:37.253Z,5.68
2022-09-07T06:01:08.280Z,7.70
2022-09-07T06:03:38.868Z,24.67
2022-09-07T06:06:09.743Z,17.55
2022-09-07T06:08:40.204Z,11.07
2022-09-07T06:11:10.573Z,11.73
2022-09-07T06:13:41.225Z,27.25
2022-09-07T06:16:11.647Z,57.47
2022-09-07T06:18:42.483Z,48.88
2022-09-07T06:21:15.549Z,49.25
2022-09-07T06:23:46.353Z,24.98
2022-09-07T06:26:17.456Z,26.20
2022-09-07T06:28:50.229Z,15.63
2022-09-07T06:31:21.627Z,13.43
2022-09-07T06:33:52.108Z,22.65
2022-09-07T06:36:25.458Z,27.30
2022-09-07T06:39:00.036Z,21.02
2022-09-07T06:49:29.752Z,9.43
2022-09-07T06:51:59.713Z,9.20
2022-09-07T06:57:19.967Z,32.53
2022-09-07T06:59:50.299Z,21.95
2022-09-07T07:02:20.868Z,13.57
2022-09-07T07:04:51.875Z,11.63
2022-09-07T07:07:22.009Z,8.50
2022-09-07T07:09:52.538Z,12.80
2022-09-07T07:14:50.815Z,13.15
2022-09-07T07:17:20.767Z,14.13
2022-09-07T07:19:50.951Z,6.88
2022-09-07T07:25:11.835Z,19.17
2022-09-07T07:27:42.130Z,11.73
2022-09-07T07:30:12.871Z,10.55
2022-09-07T07:32:43.267Z,14.15
2022-09-07T07:35:13.394Z,9.80
2022-09-07T07:37:43.454Z,12.80
2022-09-07T07:42:49.754Z,27.10
2022-09-07T07:48:10.277Z,32.60
2022-09-07T07:50:40.567Z,24.95
2022-09-07T07:56:00.951Z,21.58
2022-09-07T07:58:33.400Z,16.60
2022-09-07T08:01:12.969Z,6.72
2022-09-07T08:03:45.069Z,17.67
2022-09-07T08:06:19.467Z,7.50
2022-09-07T08:08:50.133Z,6.55
2022-09-07T08:11:21.630Z,11.43
2022-09-07T08:13:52.943Z,8.13
2022-09-07T08:16:24.072Z,5.10
2022-09-07T08:18:54.915Z,16.92
2022-09-07T08:21:25.360Z,4.03
2022-09-07T08:23:55.401Z,6.20
2022-09-07T08:26:25.697Z,7.43
2022-09-07T08:28:56.234Z,6.72
2022-09-07T08:31:26.771Z,2.40
2022-09-07T08:33:56.681Z,5.00
2022-09-07T08:36:26.596Z,3.03
2022-09-07T08:38:56.557Z,3.15
2022-09-07T08:41:45.143Z,3.50
2022-09-07T08:44:21.098Z,2.97
2022-09-07T08:46:52.001Z,4.07
2022-09-07T08:49:24.832Z,2.90
2022-09-07T08:52:18.157Z,7.88
2022-09-07T08:57:21.876Z,8.70
2022-09-07T08:59:54.316Z,7.00
2022-09-07T09:02:28.407Z,3.30
2022-09-07T09:08:01.646Z,2.88
2022-09-07T09:10:37.136Z,1.23
2022-09-07T09:13:42.735Z,2.65
2022-09-07T09:16:12.895Z,4.72
2022-09-07T09:18:54.957Z,6.15
2022-09-07T09:21:25.032Z,1.83
2022-09-07T09:24:01.974Z,3.03
2022-09-07T09:26:32.482Z,1.58
2022-09-07T09:29:19.774Z,1.25
2022-09-07T09:31:49.969Z,1.33
2022-09-07T09:34:23.885Z,2.60
2022-09-07T09:36:56.296Z,8.13
2022-09-07T09:39:27.569Z,3.50
2022-09-07T09:41:58.277Z,3.60
2022-09-07T09:44:30.127Z,3.47
2022-09-07T09:49:50.381Z,10.52
2022-09-07T09:52:30.188Z,3.38
2022-09-07T10:06:27.885Z,3.15
2022-09-07T10:08:59.000Z,4.78
2022-09-07T10:12:08.967Z,4.75
2022-09-07T10:14:39.632Z,5.78
2022-09-07T10:17:15.347Z,2.97
2022-09-07T10:19:45.514Z,5.03
2022-09-07T10:22:33.308Z,15.30
2022-09-07T10:25:03.631Z,10.85
2022-09-07T10:27:37.367Z,7.22
2022-09-07T10:30:17.275Z,10.25
2022-09-07T10:33:05.584Z,11.35
2022-09-07T10:35:44.388Z,12.30
2022-09-07T10:38:21.682Z,9.70
2022-09-07T10:40:56.142Z,9.68
2022-09-07T10:43:44.613Z,3.58
2022-09-07T10:49:23.167Z,12.10
2022-09-07T10:52:00.022Z,12.15
2022-09-07T10:54:30.526Z,6.80
2022-09-07T10:57:00.921Z,10.15
2022-09-07T11:05:41.395Z,8.80
2022-09-07T11:09:15.747Z,15.68
2022-09-07T11:14:18.858Z,6.32
2022-09-07T11:16:59.449Z,10.45
2022-09-07T11:19:43.755Z,8.85
2022-09-07T11:22:13.791Z,17.27
2022-09-07T11:24:43.966Z,11.27
2022-09-07T11:27:25.335Z,22.83
2022-09-07T11:29:58.401Z,38.67
2022-09-07T11:32:29.256Z,32.83
2022-09-07T11:35:01.214Z,24.48
2022-09-07T11:38:00.392Z,20.55
2022-09-07T11:40:34.147Z,25.65
2022-09-07T11:43:22.814Z,29.70
2022-09-07T11:46:03.758Z,18.83
2022-09-07T11:48:47.501Z,22.23
2022-09-07T11:51:24.852Z,16.38
2022-09-07T11:53:56.354Z,23.92
2022-09-07T11:56:37.237Z,21.63
2022-09-07T11:59:27.435Z,12.77
2022-09-07T12:01:57.446Z,12.27
2022-09-07T12:04:30.553Z,27.55
2022-09-07T12:07:19.626Z,12.25
2022-09-07T12:10:08.299Z,16.50
2022-09-07T12:12:43.193Z,33.38
2022-09-07T12:15:26.128Z,23.25
2022-09-07T12:17:59.251Z,35.90
2022-09-07T12:20:50.539Z,16.75
2022-09-07T12:23:20.562Z,20.17
2022-09-07T12:25:51.205Z,6.95
2022-09-07T12:28:27.236Z,14.00
2022-09-07T12:31:01.266Z,10.95
2022-09-07T12:33:32.199Z,31.38
2022-09-07T12:36:03.263Z,23.30
2022-09-07T12:38:33.323Z,18.08
2022-09-07T12:41:06.725Z,29.90
2022-09-07T12:43:37.693Z,30.02
2022-09-07T12:46:09.256Z,36.90
2022-09-07T12:48:54.600Z,27.90
2022-09-07T12:54:17.608Z,35.70
2022-09-07T13:00:06.259Z,22.15
2022-09-07T13:02:45.369Z,39.95
2022-09-07T13:05:21.145Z,42.70
2022-09-07T13:07:51.088Z,46.25
2022-09-07T13:10:37.462Z,32.50
2022-09-07T13:13:08.385Z,16.00
2022-09-07T13:15:46.363Z,18.17
2022-09-07T13:18:29.055Z,15.82
2022-09-07T13:21:13.003Z,16.45
2022-09-07T13:29:32.767Z,12.43
2022-09-07T13:32:12.526Z,13.10
2022-09-07T13:34:44.767Z,26.92
2022-09-07T13:37:21.907Z,24.92
2022-09-07T13:39:53.734Z,38.50
2022-09-07T13:42:25.826Z,35.28
2022-09-07T13:44:57.295Z,18.92
2022-09-07T13:47:49.190Z,21.35
2022-09-07T13:50:38.135Z,31.52
2022-09-07T13:53:17.286Z,15.40
2022-09-07T13:55:53.135Z,27.10
2022-09-07T13:58:25.854Z,33.88
2022-09-07T14:00:56.668Z,16.15
2022-09-07T14:03:27.034Z,28.02
2022-09-07T14:06:16.352Z,22.38
2022-09-07T14:08:50.021Z,21.73
2022-09-07T14:11:20.848Z,13.35
2022-09-07T14:14:09.552Z,19.50
2022-09-07T14:16:39.817Z,22.02
2022-09-07T14:19:19.856Z,22.33
2022-09-07T14:22:03.245Z,32.80
2022-09-07T14:27:06.828Z,35.78
2022-09-07T14:29:37.197Z,17.98
2022-09-07T14:32:07.398Z,16.27
2022-09-07T14:34:37.483Z,22.42
2022-09-07T14:37:08.641Z,33.80
2022-09-07T14:39:41.609Z,20.45
2022-09-07T14:42:15.396Z,25.08
2022-09-07T14:44:46.590Z,25.73
2022-09-07T14:47:23.166Z,21.45
2022-09-07T14:49:54.138Z,23.67
2022-09-07T14:53:34.281Z,19.23
2022-09-07T14:55:41.381Z,15.23
2022-09-07T14:58:18.034Z,19.55
2022-09-07T15:04:02.551Z,18.23
2022-09-07T15:09:31.931Z,14.77
2022-09-07T15:12:08.896Z,13.35
2022-09-07T15:20:01.764Z,8.77
2022-09-07T15:22:32.601Z,16.13
2022-09-07T15:25:02.794Z,13.68
2022-09-07T15:27:33.475Z,27.35
2022-09-07T15:30:03.419Z,18.08
2022-09-07T15:32:34.378Z,14.02
2022-09-07T15:35:05.383Z,15.40
2022-09-07T15:38:05.843Z,20.05
2022-09-07T15:40:27.010Z,15.90
2022-09-07T15:43:02.017Z,26.27
2022-09-07T15:45:35.088Z,40.90
2022-09-07T15:48:05.233Z,17.23
2022-09-07T15:50:35.528Z,16.45
2022-09-07T15:53:06.108Z,11.23
2022-09-07T15:55:37.231Z,14.48
2022-09-07T15:58:11.701Z,24.25
2022-09-07T16:00:42.484Z,16.80
2022-09-07T16:03:13.330Z,19.92
2022-09-07T16:05:45.318Z,26.63
2022-09-07T16:08:25.115Z,24.02
2022-09-07T16:11:05.281Z,15.32
2022-09-07T16:13:35.874Z,20.92
2022-09-07T16:16:07.390Z,35.15
2022-09-07T16:18:37.898Z,13.63
2022-09-07T16:21:11.855Z,38.17
2022-09-07T16:23:43.325Z,31.73
2022-09-07T16:26:16.482Z,12.48
2022-09-07T16:28:50.075Z,29.35
2022-09-07T16:31:21.586Z,19.42
2022-09-07T16:33:51.588Z,20.63
2022-09-07T16:36:24.569Z,22.00
2022-09-07T16:38:58.603Z,19.52
2022-09-07T16:41:30.293Z,15.15
2022-09-07T16:44:00.699Z,18.70
2022-09-07T16:46:36.017Z,16.55
2022-09-07T16:49:08.214Z,18.45
2022-09-07T16:51:38.425Z,12.48
2022-09-07T16:54:09.615Z,11.45
2022-09-07T16:56:39.612Z,16.77
2022-09-07T16:59:12.709Z,16.48
2022-09-07T17:01:42.779Z,15.75
2022-09-07T17:04:12.877Z,14.38
2022-09-07T17:06:43.173Z,11.18
2022-09-07T17:09:14.460Z,18.73
2022-09-07T17:11:46.535Z,19.13
2022-09-07T17:14:16.810Z,13.50
2022-09-07T17:16:46.969Z,19.77
2022-09-07T17:19:32.959Z,10.70
2022-09-07T17:22:03.221Z,11.25
2022-09-07T17:24:33.258Z,17.45
2022-09-07T17:27:04.211Z,22.63
2022-09-07T17:29:37.379Z,13.52
2022-09-07T17:32:24.425Z,9.30
2022-09-07T17:34:56.945Z,11.05
2022-09-07T17:37:26.950Z,23.52
2022-09-07T17:39:57.120Z,19.00
2022-09-07T17:43:38.960Z,23.08
2022-09-07T17:45:19.279Z,16.10
2022-09-07T17:47:51.481Z,21.33
2022-09-07T17:50:21.504Z,18.20
2022-09-07T17:52:54.228Z,13.75
2022-09-07T17:55:24.331Z,22.02
2022-09-07T17:57:54.625Z,15.93
2022-09-07T18:00:24.609Z,19.58
2022-09-07T18:02:54.516Z,21.65
2022-09-07T18:05:24.520Z,36.47
2022-09-07T18:07:54.715Z,34.03
2022-09-07T18:10:24.889Z,29.02
2022-09-07T18:12:56.111Z,18.42
2022-09-07T18:15:26.095Z,45.22
2022-09-07T18:17:56.279Z,19.23
2022-09-07T18:20:26.581Z,25.08
2022-09-07T18:22:57.759Z,24.55
2022-09-07T18:25:28.035Z,10.63
2022-09-07T18:30:49.237Z,21.23
2022-09-07T18:33:19.284Z,12.75
2022-09-07T18:35:49.297Z,13.70
2022-09-07T18:38:19.258Z,17.90
2022-09-07T18:40:51.093Z,7.25
2022-09-07T18:43:21.291Z,16.83
2022-09-07T18:45:51.334Z,9.38
2022-09-07T18:48:21.576Z,15.77
2022-09-07T18:50:55.388Z,16.80
2022-09-07T18:53:25.473Z,13.73
2022-09-07T18:55:55.463Z,7.90
2022-09-07T18:58:26.305Z,17.77
2022-09-07T19:00:59.236Z,9.05
2022-09-07T19:03:29.433Z,15.68
2022-09-07T19:06:02.968Z,13.27
2022-09-07T19:08:33.465Z,15.13
2022-09-07T19:11:09.910Z,19.95
2022-09-07T19:13:40.979Z,15.18
2022-09-07T19:16:18.345Z,10.70
2022-09-07T19:18:48.519Z,15.75
2022-09-07T19:21:20.667Z,8.15
2022-09-07T19:23:57.565Z,10.73
2022-09-07T19:26:27.896Z,21.38
2022-09-07T19:29:01.510Z,17.13
2022-09-07T19:31:32.072Z,16.10
2022-09-07T19:34:02.842Z,10.88
2022-09-07T19:36:33.829Z,16.40
2022-09-07T19:39:04.011Z,14.02
2022-09-07T19:41:35.397Z,11.25
2022-09-07T19:44:05.470Z,9.55
2022-09-07T19:46:38.385Z,9.35
2022-09-07T19:49:13.167Z,19.73
2022-09-07T19:51:43.659Z,11.88
2022-09-07T19:54:14.394Z,16.60
2022-09-07T19:56:47.304Z,19.35
2022-09-07T19:59:19.601Z,17.95
2022-09-07T20:01:51.653Z,20.02
2022-09-07T20:04:24.805Z,20.70
2022-09-07T20:06:55.302Z,15.70
2022-09-07T20:09:26.953Z,17.45
2022-09-07T20:11:58.516Z,12.70
2022-09-07T20:14:29.184Z,18.88
2022-09-07T20:16:59.089Z,15.75
2022-09-07T20:19:29.809Z,12.38
2022-09-07T20:22:00.133Z,8.00
2022-09-07T20:24:30.411Z,24.20
2022-09-07T20:27:00.489Z,8.68
2022-09-07T20:29:33.691Z,7.72
2022-09-07T20:32:03.935Z,19.23
2022-09-07T20:34:34.590Z,15.38
2022-09-07T20:37:04.559Z,17.35
2022-09-07T20:39:39.111Z,10.05
2022-09-07T20:42:09.735Z,9.80
2022-09-07T20:44:39.844Z,14.27
2022-09-07T20:47:09.956Z,15.32
2022-09-07T20:49:40.824Z,6.00
2022-09-07T20:52:11.544Z,9.35
2022-09-07T20:54:41.719Z,12.77
2022-09-07T20:57:11.691Z,8.52
2022-09-07T20:59:42.459Z,26.88
2022-09-07T21:02:12.471Z,16.65
2022-09-07T21:04:42.473Z,7.22
2022-09-07T21:07:12.472Z,8.63
2022-09-07T21:09:42.465Z,11.00
2022-09-07T21:12:12.384Z,15.50
2022-09-07T21:14:42.318Z,16.25
2022-09-07T21:17:12.245Z,8.85
2022-09-07T21:19:42.271Z,11.65
2022-09-07T21:22:12.218Z,12.75
2022-09-07T21:24:42.208Z,14.75
2022-09-07T21:27:12.095Z,13.48
2022-09-07T21:29:42.209Z,10.63
2022-09-07T21:32:12.116Z,17.35
2022-09-07T21:34:42.032Z,11.52
2022-09-07T21:37:11.991Z,16.40
2022-09-07T21:39:42.489Z,20.30
2022-09-07T21:42:12.455Z,20.92
2022-09-07T21:44:42.423Z,21.00
2022-09-07T21:47:12.358Z,11.15
2022-09-07T21:49:42.303Z,9.80
2022-09-07T21:52:12.541Z,11.63
2022-09-07T21:54:42.919Z,14.95
2022-09-07T21:57:12.948Z,10.70
2022-09-07T21:59:43.162Z,8.88
2022-09-07T22:02:13.405Z,9.55
2022-09-07T22:04:43.370Z,13.43
2022-09-07T22:07:13.426Z,12.68
2022-09-07T22:09:43.477Z,9.43
2022-09-07T22:12:13.575Z,18.80
2022-09-07T22:14:43.538Z,7.90
2022-09-07T22:17:13.465Z,16.02
2022-09-07T22:19:43.526Z,13.20
2022-09-07T22:22:13.744Z,15.10
2022-09-07T22:24:43.764Z,13.00
2022-09-07T22:27:14.073Z,24.25
2022-09-07T22:29:43.956Z,12.25
2022-09-07T22:32:13.934Z,7.88
2022-09-07T22:34:43.894Z,10.02
2022-09-07T22:37:13.945Z,16.13
2022-09-07T22:39:44.062Z,12.02
2022-09-07T22:42:14.043Z,16.67
2022-09-07T22:44:44.208Z,19.75
2022-09-07T22:47:14.350Z,9.25
2022-09-07T22:49:46.877Z,12.88
2022-09-07T22:52:18.944Z,12.55
2022-09-07T22:54:48.967Z,12.73
2022-09-07T22:57:20.324Z,10.98
2022-09-07T22:59:50.431Z,11.50
2022-09-07T23:02:20.597Z,19.65
2022-09-07T23:04:53.445Z,14.68
2022-09-07T23:07:23.783Z,18.80
2022-09-07T23:09:54.165Z,33.53
2022-09-07T23:12:24.218Z,22.05
2022-09-07T23:14:54.289Z,21.15
2022-09-07T23:17:24.675Z,16.83
2022-09-07T23:19:54.797Z,15.57
2022-09-07T23:22:25.643Z,19.58
2022-09-07T23:24:55.651Z,20.92
2022-09-07T23:27:25.661Z,17.63
2022-09-07T23:29:56.209Z,13.73
2022-09-07T23:32:26.219Z,22.23
2022-09-07T23:34:56.336Z,19.00
2022-09-07T23:37:26.449Z,19.58
2022-09-07T23:39:56.549Z,23.98
2022-09-07T23:42:26.744Z,18.70
2022-09-07T23:44:56.890Z,32.63
2022-09-07T23:47:28.474Z,36.70
2022-09-07T23:49:58.894Z,22.23
2022-09-07T23:52:31.881Z,21.77
2022-09-07T23:55:02.098Z,21.88
2022-09-07T23:57:32.072Z,25.75
